Latest Weather Observations for Yanakie

IDV60801

Issued at 12:02 pm EDT Thursday 2 April 2015 (issued every 30 minutes, with the page automatically refreshed every 10 minutes)

About weather observations | Map of weather stations | Latest weather observations for VIC | Other Formats
Station Details ID: 085301 Name: YANAKIE Lat: -38.81 Lon: 146.19 Height: 13.3 m
Data from the previous 72 hours. | See also: Recent months at Yanakie
Date/Time
EDT
Temp
°C
App
Temp
°C
Dew
Point
Rel
Hum
%
Delta-T
°C
Wind Press
QNH
hPa
Press
MSL
hPa
Rain
since 9 am
mm
Dir
 
Spd
km/h
Gust
km/h
Spd
kts
Gust
kts
02/12:00pm 14.6 6.1 9.2 70 2.8 WSW 44 57 24 31 1021.5 1021.5 0.4
02/11:38am 13.6 5.2 8.9 73 2.4 SW 43 63 23 34 1021.4 1021.4 0.4
02/11:30am 14.4 5.7 9.8 74 2.4 SW 46 63 25 34 1021.3 1021.3 0.4
02/11:08am 14.5 6.8 10.3 76 2.2 WSW 41 63 22 34 1021.0 1021.0 0.4
02/11:00am 13.7 6.0 10.1 79 1.9 WSW 41 56 22 30 1020.9 1020.9 0.4
02/10:57am 13.8 6.9 10.4 80 1.8 SW 37 56 20 30 1020.9 1020.9 0.4
02/10:30am 13.2 6.7 10.2 82 1.6 WSW 35 50 19 27 1020.6 1020.6 0.4
02/10:15am 15.1 6.7 8.8 66 3.2 WSW 43 61 23 33 1020.4 1020.4 0.0
02/10:00am 14.9 6.5 9.7 71 2.7 SW 44 59 24 32 1020.1 1020.1 0.0
02/09:41am 13.0 4.2 8.1 72 2.4 WSW 44 65 24 35 1019.9 1019.9 0.0
02/09:30am 14.2 5.5 7.5 64 3.3 WSW 43 61 23 33 1019.5 1019.5 0.0
02/09:26am 14.6 6.4 8.3 66 3.2 WSW 41 61 22 33 1019.4 1019.4 0.0
02/09:00am 14.8 6.4 9.0 68 2.9 WSW 43 57 23 31 1019.0 1019.0 0.2
02/08:30am 14.0 6.5 9.6 75 2.3 WSW 39 57 21 31 1018.3 1018.3 0.2
02/08:00am 12.9 5.3 9.0 77 2.0 W 39 63 21 34 1018.0 1018.0 0.2
02/07:58am 13.2 6.1 9.5 78 1.9 W 37 63 20 34 1017.9 1017.9 0.2
02/07:30am 12.3 5.2 9.7 84 1.3 WSW 37 50 20 27 1017.4 1017.4 0.2
02/07:00am 13.9 7.3 10.1 78 2.0 W 35 46 19 25 1016.9 1016.9 0.2
02/06:30am 13.7 7.1 9.9 78 2.0 W 35 44 19 24 1016.3 1016.3 0.2
02/06:00am 14.1 7.8 9.1 72 2.5 W 32 44 17 24 1016.0 1016.0 0.2
02/05:30am 14.2 8.1 10.4 78 2.0 WSW 33 44 18 24 1015.3 1015.3 0.2
02/05:00am 13.7 7.2 10.5 81 1.7 WSW 35 54 19 29 1015.2 1015.2 0.2
02/04:47am 13.7 7.8 11.2 85 1.3 WSW 33 52 18 28 1015.0 1015.0 0.2
02/04:30am 13.9 7.8 11.8 87 1.1 W 35 48 19 26 1014.8 1014.8 0.0
02/04:00am 14.4 9.6 13.0 91 0.8 WSW 30 43 16 23 1014.5 1014.5 0.0
02/03:30am 14.9 9.3 13.4 91 0.8 W 35 57 19 31 1014.4 1014.4 0.0
02/03:21am 15.0 9.8 13.5 91 0.8 WSW 33 52 18 28 1014.3 1014.3 0.0
02/03:00am 15.7 11.0 14.2 91 0.9 W 32 44 17 24 1014.0 1014.0 0.0
02/02:30am 16.2 11.3 14.4 89 1.0 WSW 33 52 18 28 1013.8 1013.8 0.0
02/02:21am 16.5 11.7 14.5 88 1.1 WSW 33 52 18 28 1013.7 1013.7 0.0
02/02:00am 18.0 14.8 15.3 84 1.6 W 26 32 14 17 1013.2 1013.2 0.0
02/01:30am 18.2 14.2 15.1 82 1.8 W 30 39 16 21 1013.2 1013.2 0.0
02/01:00am 18.2 14.7 14.5 79 2.1 WSW 26 37 14 20 1012.7 1012.7 0.0
02/12:30am 18.6 14.5 13.9 74 2.7 WSW 28 37 15 20 1013.0 1013.0 0.0
02/12:00am 19.0 14.8 13.6 71 3.1 WSW 28 37 15 20 1012.9 1012.9 0.0
 
Date/Time
EDT
Temp
°C
App
Temp
°C
Dew
Point
Rel
Hum
%
Delta-T
°C
Wind Press
QNH
hPa
Press
MSL
hPa
Rain
since 9 am
mm
Dir
 
Spd
km/h
Gust
km/h
Spd
kts
Gust
kts
01/11:30pm 19.9 15.6 13.1 65 3.9 WSW 28 39 15 21 1012.4 1012.4 0.0
01/11:00pm 22.4 19.6 12.6 54 5.6 NW 19 39 10 21 1012.0 1012.0 0.0
01/10:30pm 22.9 21.8 13.1 54 5.6 N 11 17 6 9 1010.8 1010.8 0.0
01/10:00pm 21.4 20.5 13.8 62 4.4 NNE 11 13 6 7 1011.1 1011.1 0.0
01/09:30pm 22.3 21.3 13.4 57 5.1 NNE 11 13 6 7 1011.2 1011.2 0.0
01/09:00pm 22.1 21.6 13.7 59 4.9 NNE 9 13 5 7 1011.5 1011.5 0.0
01/08:30pm 22.4 22.3 14.0 59 4.9 NNE 7 11 4 6 1011.7 1011.7 0.0
01/08:00pm 22.2 22.4 14.6 62 4.5 NNE 7 11 4 6 1011.8 1011.8 0.0
01/07:30pm 22.1 22.3 14.2 61 4.6 NNE 6 9 3 5 1011.7 1011.7 0.0
01/07:00pm 23.0 23.1 14.0 57 5.3 NNE 6 7 3 4 1011.8 1011.8 0.0
01/06:30pm 24.3 24.4 13.8 52 6.2 N 6 9 3 5 1012.0 1012.0 0.0
01/06:00pm 24.5 24.4 14.0 52 6.2 NNW 7 9 4 5 1012.2 1012.2 0.0
01/05:30pm 25.4 24.6 13.9 49 6.8 NNW 11 15 6 8 1012.2 1012.2 0.0
01/05:00pm 26.2 24.4 13.3 45 7.6 NNW 15 22 8 12 1012.2 1012.2 0.0
01/04:30pm 26.8 24.7 13.5 44 7.8 NNW 17 26 9 14 1012.5 1012.5 0.0
01/04:00pm 26.7 24.5 13.4 43 7.8 NNW 17 24 9 13 1012.7 1012.7 0.0
01/03:30pm 27.0 23.5 12.3 40 8.5 NNW 22 32 12 17 1013.2 1013.2 0.0
01/03:00pm 28.5 24.4 12.8 38 9.2 NW 26 37 14 20 1013.6 1013.6 0.0
01/02:30pm 28.2 25.1 12.1 37 9.3 NNW 20 26 11 14 1014.2 1014.2 0.0
01/02:00pm 28.8 25.3 12.2 35 9.7 NNW 22 32 12 17 1014.5 1014.5 0.0
01/01:30pm 26.4 24.0 12.5 42 8.1 NNW 17 24 9 13 1015.0 1015.0 0.0
01/01:00pm 26.2 23.4 12.6 43 7.9 NNW 19 26 10 14 1015.6 1015.6 0.0
01/12:30pm 26.8 25.1 13.5 44 7.8 NNW 15 24 8 13 1016.1 1016.1 0.0
01/12:00pm 26.1 25.3 13.9 47 7.2 N 11 19 6 10 1016.7 1016.7 0.0
01/11:30am 22.8 23.7 16.1 66 4.1 NE 6 7 3 4 1017.2 1017.2 0.0
01/11:00am 21.7 23.2 17.5 77 2.6 NE 6 7 3 4 1017.5 1017.5 0.0
01/10:30am 20.0 21.6 18.3 90 1.1 ENE 7 9 4 5 1017.8 1017.8 0.0
01/10:00am 19.9 21.5 19.2 96 0.4 NE 9 11 5 6 1018.1 1018.1 0.0
01/09:30am 18.2 19.3 17.9 98 0.2 NE 9 13 5 7 1018.5 1018.5 0.0
01/09:00am 15.8 16.5 15.5 98 0.2 NE 6 9 3 5 1018.6 1018.6 0.0
01/08:30am 13.6 13.9 13.3 98 0.2 NNE 4 6 2 3 1018.7 1018.7 0.0
01/08:00am 12.8 12.4 12.5 98 0.2 NE 6 7 3 4 1018.5 1018.5 0.0
01/07:30am 10.7 10.8 10.2 97 0.3 CALM 0 0 0 0 1018.6 1018.6 0.0
01/07:00am 10.3 10.3 9.8 97 0.3 CALM 0 0 0 0 1018.8 1018.8 0.0
01/06:30am 10.5 10.6 10.0 97 0.3 CALM 0 0 0 0 1018.7 1018.7 0.0
01/06:00am 12.9 12.5 12.4 97 0.3 NNE 6 7 3 4 1018.8 1018.8 0.0
01/05:30am 12.6 12.5 12.0 96 0.3 NE 4 7 2 4 1018.8 1018.8 0.0
01/05:00am 12.9 12.5 12.3 96 0.3 NE 6 7 3 4 1019.0 1019.0 0.0
01/04:30am 13.2 12.7 12.6 96 0.3 NE 7 11 4 6 1019.1 1019.1 0.0
01/04:00am 12.7 12.2 12.1 96 0.3 NE 6 7 3 4 1019.5 1019.5 0.0
01/03:30am 13.3 12.9 12.5 95 0.4 NE 6 9 3 5 1019.8 1019.8 0.0
01/03:00am 14.0 13.7 13.2 95 0.4 NNE 7 9 4 5 1020.2 1020.2 0.0
01/02:30am 14.5 14.3 13.7 95 0.4 NNE 7 9 4 5 1020.8 1020.8 0.0
01/02:00am 14.9 15.0 13.9 94 0.6 NE 6 7 3 4 1021.1 1021.1 0.0
01/01:30am 15.6 15.4 14.6 94 0.6 ENE 9 11 5 6 1021.5 1021.5 0.0
01/01:00am 16.2 15.1 15.2 94 0.6 ENE 15 19 8 10 1021.8 1021.8 0.0
01/12:30am 16.1 16.1 15.1 94 0.6 ENE 9 13 5 7 1022.1 1022.1 0.0
01/12:00am 16.2 15.8 15.1 93 0.6 ENE 11 17 6 9 1022.3 1022.3 0.0
 
Date/Time
EDT
Temp
°C
App
Temp
°C
Dew
Point
Rel
Hum
%
Delta-T
°C
Wind Press
QNH
hPa
Press
MSL
hPa
Rain
since 9 am
mm
Dir
 
Spd
km/h
Gust
km/h
Spd
kts
Gust
kts
31/11:30pm 16.0 15.9 14.9 93 0.6 E 9 15 5 8 1022.6 1022.6 0.0
31/11:00pm 16.2 15.0 15.1 93 0.6 ENE 15 19 8 10 1022.7 1022.7 0.0
31/10:30pm 16.2 14.9 14.9 92 0.7 ENE 15 20 8 11 1023.0 1023.0 0.0
31/10:00pm 16.3 15.4 14.8 91 0.9 ENE 13 19 7 10 1023.2 1023.2 0.0
31/09:30pm 16.4 15.1 14.9 91 0.9 ENE 15 24 8 13 1023.3 1023.3 0.0
31/09:00pm 16.5 14.9 14.9 90 0.9 ENE 17 24 9 13 1023.4 1023.4 0.0
31/08:30pm 16.4 15.8 14.6 89 1.0 ENE 11 20 6 11 1023.4 1023.4 0.0
31/08:00pm 16.6 15.5 14.4 87 1.3 E 13 20 7 11 1023.3 1023.3 0.0
31/07:30pm 16.6 15.4 13.9 84 1.5 ENE 13 22 7 12 1023.0 1023.0 0.0
31/07:00pm 17.3 16.7 13.4 78 2.2 E 9 17 5 9 1022.9 1022.9 0.0
31/06:30pm 18.3 17.4 13.6 74 2.7 E 11 17 6 9 1023.0 1023.0 0.0
31/06:00pm 19.3 18.5 14.1 72 3.0 E 11 17 6 9 1023.1 1023.1 0.0
31/05:30pm 20.0 18.8 13.9 68 3.5 ENE 13 20 7 11 1023.0 1023.0 0.0
31/05:00pm 20.9 20.1 14.1 65 3.9 ENE 11 17 6 9 1023.1 1023.1 0.0
31/04:30pm 21.6 21.1 13.8 61 4.5 ENE 9 15 5 8 1023.3 1023.3 0.0
31/04:00pm 22.3 21.6 14.2 60 4.7 S 11 17 6 9 1023.7 1023.7 0.0
31/03:30pm 22.8 21.4 14.4 59 4.9 S 15 19 8 10 1023.6 1023.6 0.0
31/03:00pm 23.3 22.0 14.8 59 5.0 SSW 15 19 8 10 1023.6 1023.6 0.0
31/02:30pm 22.6 22.3 13.4 56 5.3 E 7 11 4 6 1023.9 1023.9 0.0
31/02:00pm 21.6 20.7 12.7 57 5.0 E 9 11 5 6 1024.2 1024.2 0.0
31/01:30pm 21.0 20.3 13.2 61 4.5 ENE 9 13 5 7 1024.7 1024.7 0.0
31/01:00pm 20.2 19.2 12.2 60 4.5 ENE 9 13 5 7 1025.1 1025.1 0.0
31/12:30pm 20.1 18.7 10.8 55 5.1 NE 9 13 5 7 1025.5 1025.5 0.0
31/12:00pm 20.2 19.4 12.9 63 4.1 ENE 9 11 5 6 1026.0 1026.0 0.0
31/11:30am 19.7 20.7 16.3 81 2.0 E 6 9 3 5 1026.7 1026.7 0.0
31/11:00am 18.7 20.5 17.4 92 0.8 NE 4 7 2 4 1027.1 1027.1 0.0
31/10:30am 16.6 18.1 15.8 95 0.5 NNE 2 4 1 2 1027.2 1027.2 0.0
31/10:00am 15.3 16.1 14.8 97 0.3 NNE 4 6 2 3 1027.0 1027.0 0.0
31/09:30am 14.2 15.4 13.7 97 0.3 CALM 0 0 0 0 1027.0 1027.0 0.0
31/09:00am 13.1 14.0 12.8 98 0.2 CALM 0 0 0 0 1027.0 1027.0 0.0
31/08:30am 10.1 10.1 9.8 98 0.2 CALM 0 0 0 0 1026.7 1026.7 0.0
31/08:00am 7.4 6.7 7.0 97 0.2 CALM 0 0 0 0 1026.5 1026.5 0.0
31/07:30am 7.4 6.7 7.0 97 0.2 CALM 0 0 0 0 1026.2 1026.2 0.0
31/07:00am 7.7 6.7 7.3 97 0.2 NNE 2 4 1 2 1025.8 1025.8 0.0
31/06:30am 6.4 5.5 6.0 97 0.2 CALM 0 0 0 0 1025.7 1025.7 0.0
31/06:00am 7.0 6.2 6.6 97 0.2 CALM 0 0 0 0 1025.5 1025.5 0.0
31/05:30am 7.7 6.6 7.1 96 0.3 NNE 2 2 1 1 1025.5 1025.5 0.0
31/05:00am 7.8 7.2 7.2 96 0.3 CALM 0 0 0 0 1025.4 1025.4 0.0
31/04:30am 8.6 7.4 8.0 96 0.3 ENE 4 4 2 2 1025.4 1025.4 0.0
31/04:00am 9.4 8.8 8.8 96 0.3 WSW 2 6 1 3 1025.6 1025.6 0.0
31/03:30am 10.3 9.9 9.7 96 0.3 WSW 2 2 1 1 1025.7 1025.7 0.0
31/03:00am 9.3 8.3 8.7 96 0.3 W 4 4 2 2 1025.9 1025.9 0.0
31/02:30am 9.9 9.8 9.3 96 0.3 CALM 0 2 0 1 1026.1 1026.1 0.0
31/02:00am 9.3 9.0 8.5 95 0.4 CALM 0 0 0 0 1026.2 1026.2 0.0
31/01:30am 9.7 9.5 8.9 95 0.4 CALM 0 0 0 0 1026.2 1026.2 0.0
31/01:00am 11.3 11.1 10.5 95 0.4 N 2 4 1 2 1026.3 1026.3 0.0
31/12:30am 10.7 10.3 9.8 94 0.5 N 2 2 1 1 1026.3 1026.3 0.0
31/12:00am 10.5 9.7 9.6 94 0.4 N 4 6 2 3 1026.4 1026.4 0.0
 
Date/Time
EDT
Temp
°C
App
Temp
°C
Dew
Point
Rel
Hum
%
Delta-T
°C
Wind Press
QNH
hPa
Press
MSL
hPa
Rain
since 9 am
mm
Dir
 
Spd
km/h
Gust
km/h
Spd
kts
Gust
kts
30/11:30pm 11.2 10.1 10.1 93 0.6 N 6 6 3 3 1026.5 1026.5 0.0
30/11:00pm 11.7 10.8 10.8 94 0.5 N 6 6 3 3 1026.7 1026.7 0.0
30/10:30pm 10.9 10.1 9.7 92 0.6 NNE 4 6 2 3 1026.6 1026.6 0.0
30/10:00pm 11.9 11.4 10.6 92 0.7 NNW 4 4 2 2 1026.6 1026.6 0.0
30/09:30pm 11.9 11.3 10.5 91 0.7 N 4 6 2 3 1026.4 1026.4 0.0
30/09:00pm 12.2 11.3 10.6 90 0.8 WSW 6 7 3 4 1026.3 1026.3 0.0
30/08:30pm 13.0 12.6 11.1 88 1.0 SW 4 6 2 3 1026.0 1026.0 0.0
30/08:00pm 13.6 12.9 11.3 86 1.2 SW 6 7 3 4 1025.8 1025.8 0.0
30/07:30pm 14.1 13.2 11.3 83 1.5 SW 7 7 4 4 1025.3 1025.3 0.0
30/07:00pm 16.2 14.9 12.6 79 2.0 SW 11 13 6 7 1025.0 1025.0 0.0
30/06:30pm 17.7 15.9 13.2 75 2.5 SW 15 20 8 11 1024.7 1024.7 0.0
30/06:00pm 18.9 16.8 13.5 71 3.1 SW 17 22 9 12 1024.3 1024.3 0.0
30/05:30pm 19.9 17.9 13.8 68 3.5 SW 17 19 9 10 1024.1 1024.1 0.0
30/05:00pm 20.4 18.0 13.8 66 3.8 SW 19 24 10 13 1024.0 1024.0 0.0
30/04:30pm 21.6 19.7 14.3 63 4.3 SW 17 22 9 12 1023.8 1023.8 0.0
30/04:00pm 21.6 18.8 12.7 57 5.0 SW 19 22 10 12 1023.8 1023.8 0.0
30/03:30pm 21.6 18.8 12.7 57 5.1 WSW 19 24 10 13 1024.0 1024.0 0.0
30/03:00pm 22.3 19.9 13.9 59 4.9 SW 19 26 10 14 1023.9 1023.9 0.0
30/02:30pm 21.9 19.4 14.0 61 4.6 SW 20 28 11 15 1024.0 1024.0 0.0
30/02:00pm 22.1 19.8 14.0 60 4.7 SW 19 24 10 13 1024.0 1024.0 0.0
30/01:30pm 21.7 18.8 12.8 57 5.1 WSW 20 24 11 13 1024.3 1024.3 0.0
30/01:00pm 21.7 18.8 12.8 57 5.0 WSW 20 26 11 14 1024.4 1024.4 0.0
30/12:30pm 21.8 19.3 12.4 55 5.3 SW 17 22 9 12 1024.6 1024.6 0.0

Other Formats:

Comma delimited format used in spreadsheet applications
http://www.bom.gov.au/fwo/IDV60801/IDV60801.94911.axf

JavaScript Object Notation format (JSON) in row-major order
http://www.bom.gov.au/fwo/IDV60801/IDV60801.94911.json